SHASTA DAM (USBR) (SHA)

Elevation: 1067' · SACRAMENTO R basin · Operator: US Bureau of Reclamation

Provisional data, subject to change.
Query executed Thursday at 3:08:49   clock

Select a sensor type for a plot of data.
Note: Reservoir Flows are daily averages.

Earlier

Date RES ELE    STORAGE    RES CHG    TOC STO    ABV TOC    OUTFLOW    INFLOW    EVAP    FNF    RIV REL    PPT INC    RAIN    SPILL    DIS PWR   
 FEET   AF   AF   AF   AF   CFS   CFS   CFS   CFS   CFS   INCHES   INCHES   CFS   CFS  
11/19/2014 890.06 1052387 -112 3486526 -2434139 3526 3500 30 3296 0 0.00 5.83 0 3526
11/20/2014 890.23 1054297 1910 3465215 -2410918 3499 4478 16 3340 0 0.51 6.34 0 3499
11/21/2014 890.08 1052612 -1685 3443903 -- 4345 3561 66 3870 0 0.20 6.54 0 4345
11/22/2014 890.22 1054184 1572 3422592 -- 3900 4700 7 5470 0 2.18 8.72 0 3900
11/23/2014 890.12 1053061 -1123 3401280 -2348219 4292 3739 13 3440 0 0.04 8.76 0 4292
11/24/2014 890.01 1051825 -1236 3379969 -2328144 3838 3231 16 3163 0 0.00 8.76 0 3838
11/25/2014 889.93 1050933 -892 3358657 -2307724 3537 3097 10 3272 0 0.00 8.76 0 3537
11/26/2014 889.67 1048034 -2899 3337346 -2289312 3784 2338 16 2838 0 0.00 8.76 0 3784
11/27/2014 889.55 1046696 -1338 3316034 -2269338 3682 3017 10 2928 0 0.00 8.76 0 3682
11/28/2014 889.56 1046807 111 3294723 -2247916 3803 3862 3 3527 0 0.00 8.76 0 3803
11/29/2014 889.49 1046027 -780 3273412 -2227384 3601 3211 3 4007 0 0.85 9.61 0 3601
11/30/2014 889.66 1047922 1895 3252100 -2204178 3771 4736 10 4223 0 0.45 10.06 0 3771
12/01/2014 889.77 1049149 1227 3252100 -2202951 3566 4205 20 3829 0 0.23 10.29 0 3566
12/02/2014 889.79 1049372 223 3252100 -2202728 3348 3483 23 4136 0 0.07 10.36 0 3348
12/03/2014 890.37 1055870 6498 3252100 -2196230 2346 5629 7 6946 0 0.77 11.13 0 2346
12/04/2014 891.42 1067701 11831 3252100 -2184399 3089 9057 3 8981 0 1.22 12.35 0 3089
12/05/2014 892.65 1081677 13976 3252100 -2170423 3132 10188 10 10438 0 0.47 12.82 0 3132
12/06/2014 895.15 1110478 28801 3252100 -2141622 2135 16658 3 17515 0 1.35 14.17 0 2135
12/07/2014 896.34 1124382 13904 3252100 -2127718 1989 9009 10 8786 0 0.00 14.17 0 1989
12/08/2014 897.44 1137340 12958 3252100 -2114760 2685 9228 10 8940 0 0.37 14.54 0 2685
12/09/2014 898.43 1149090 11750 3252100 -2103010 2767 8708 17 7780 0 0.97 15.51 0 2767
12/10/2014 900.24 1170769 21679 3252100 -2081331 763 11711 18 10770 0 0.97 16.48 0 763
12/11/2014 910.80 1302160 131391 3252100 -1949940 296 66542 4 68772 0 6.09 22.57 0 296
12/12/2014 915.77 1367443 65283 3252100 -1884657 710 33631 8 34538 0 2.20 24.77 0 710
12/13/2014 918.25 1400864 33421 3252100 -1851236 1719 18589 20 16655 0 0.20 24.97 0 1719
12/14/2014 920.13 1426564 25700 3252100 -1825536 765 13742 20 12566 0 0.00 24.97 0 765
12/15/2014 921.46 1444862 18298 3252100 -1807238 1510 10751 16 11020 0 0.21 25.18 0 1510
12/16/2014 922.78 1463175 18313 3252100 -1788925 1887 11132 12 11753 0 1.02 26.20 0 1887
12/17/2014 -- -- -- -- -- -- -- -- -- -- -- -- -- --
12/18/2014 -- -- -- -- -- -- -- -- -- -- -- -- -- --

Later | Latest

Warning! This data is preliminary and subject to revision.

Show SHA Map | Plot SHA Data | 1 Month SHA Data | Real-Time SHA Data | SHA Info